Time;durP1;ratioP1;P1;durP2;ratioP2;P2;SDS_P1;SDS_P2;PMS_P1;PMS_P2;Temp;Humidity;BMP_temperature;BMP_pressure;BME280_temperature;BME280_humidity;BME280_pressure;Samples;Min_cycle;Max_cycle;Signal;HPM_P1;HPM_P2
2023/03/06 00:02:21;;;;;;;16.33;10.40;;;;;;;4.39;71.99;94282.81;4976686;28;20446;-70
2023/03/06 00:04:48;;;;;;;21.93;12.20;;;;;;;4.35;72.38;94283.03;5034727;28;20612;-71
2023/03/06 00:07:16;;;;;;;16.60;12.37;;;;;;;4.38;71.87;94281.97;5035167;28;20495;-72
2023/03/06 00:09:43;;;;;;;17.40;11.30;;;;;;;4.38;72.11;94281.16;5034719;28;20527;-73
2023/03/06 00:12:10;;;;;;;19.30;12.27;;;;;;;4.38;72.32;94274.19;5035165;28;20840;-73
2023/03/06 00:14:36;;;;;;;21.87;12.37;;;;;;;4.44;71.95;94271.16;5034442;28;20783;-71
2023/03/06 00:17:03;;;;;;;24.70;13.10;;;;;;;4.48;72.21;94276.97;5034808;28;20952;-72
2023/03/06 00:19:30;;;;;;;19.13;12.63;;;;;;;4.42;72.44;94267.00;5034623;28;20509;-73
2023/03/06 00:21:57;;;;;;;19.57;12.50;;;;;;;4.46;71.91;94271.03;5034544;28;20449;-71
2023/03/06 00:24:25;;;;;;;37.03;19.80;;;;;;;4.53;73.17;94277.47;5034393;28;20442;-72
2023/03/06 00:26:52;;;;;;;29.40;17.23;;;;;;;4.67;72.76;94272.13;5034362;28;20564;-70
2023/03/06 00:29:19;;;;;;;19.00;13.80;;;;;;;4.83;71.71;94272.66;5035048;28;20453;-72
2023/03/06 00:31:46;;;;;;;26.20;14.10;;;;;;;4.90;70.90;94273.88;5034338;28;20457;-72
2023/03/06 00:34:13;;;;;;;22.80;11.87;;;;;;;5.04;69.98;94288.47;5034452;28;20474;-72
2023/03/06 00:36:40;;;;;;;22.73;14.60;;;;;;;5.06;71.00;94281.38;5034340;28;20446;-72
2023/03/06 00:39:07;;;;;;;22.80;13.60;;;;;;;5.16;70.63;94284.97;5034517;28;20799;-72
2023/03/06 00:41:35;;;;;;;21.17;13.13;;;;;;;5.14;70.48;94279.06;5034234;28;20442;-72
2023/03/06 00:44:02;;;;;;;18.90;13.10;;;;;;;5.20;69.50;94282.97;5034419;28;20438;-73
2023/03/06 00:46:29;;;;;;;22.47;13.40;;;;;;;5.23;70.01;94286.19;5034133;28;20489;-71
2023/03/06 00:48:55;;;;;;;21.43;12.83;;;;;;;5.23;70.27;94280.16;5034024;28;20442;-72
2023/03/06 00:51:22;;;;;;;22.13;12.40;;;;;;;5.21;69.92;94288.09;5033939;28;20450;-73
2023/03/06 00:53:49;;;;;;;24.57;14.10;;;;;;;5.21;69.93;94276.84;5034364;28;20438;-72
2023/03/06 00:56:16;;;;;;;21.77;13.23;;;;;;;5.20;69.26;94277.75;5033861;28;20460;-72
2023/03/06 00:58:44;;;;;;;21.10;13.63;;;;;;;5.18;69.78;94274.44;5033912;28;20446;-73
2023/03/06 01:01:11;;;;;;;17.50;13.13;;;;;;;5.08;69.61;94276.06;4999076;28;20438;-70
2023/03/06 01:03:38;;;;;;;27.43;12.87;;;;;;;5.04;69.91;94269.44;5033573;28;20852;-73
2023/03/06 01:06:05;;;;;;;18.23;12.10;;;;;;;5.04;70.69;94279.84;5033501;28;20510;-72
2023/03/06 01:08:32;;;;;;;23.83;13.67;;;;;;;5.02;71.39;94273.94;4998854;28;20469;-72
2023/03/06 01:10:59;;;;;;;19.20;14.13;;;;;;;5.05;70.93;94271.09;4998800;28;20772;-72
2023/03/06 01:13:25;;;;;;;21.87;14.40;;;;;;;5.03;69.86;94267.78;5033113;28;20435;-70
2023/03/06 01:15:54;;;;;;;19.57;14.40;;;;;;;5.04;69.92;94265.06;5033413;28;20987;-73
2023/03/06 01:18:20;;;;;;;19.33;12.73;;;;;;;4.96;70.84;94272.63;5033362;28;20441;-72
2023/03/06 01:20:47;;;;;;;18.83;12.83;;;;;;;4.94;71.08;94270.13;4998426;28;20516;-71
2023/03/06 01:23:14;;;;;;;17.37;12.63;;;;;;;4.91;71.35;94270.31;5033398;28;21001;-73
2023/03/06 01:25:40;;;;;;;19.70;13.13;;;;;;;4.85;71.57;94270.78;5033425;28;20489;-72
2023/03/06 01:28:07;;;;;;;18.17;12.43;;;;;;;4.86;71.65;94266.41;5033482;28;20450;-71
2023/03/06 01:30:34;;;;;;;20.07;13.13;;;;;;;4.84;72.48;94276.91;5033177;28;20991;-72
2023/03/06 01:33:02;;;;;;;22.30;14.00;;;;;;;4.84;72.92;94268.28;5033263;28;20837;-72
2023/03/06 01:35:29;;;;;;;22.07;14.70;;;;;;;4.48;73.29;94274.34;5032868;28;20478;-72
2023/03/06 01:37:56;;;;;;;19.43;12.40;;;;;;;4.47;73.23;94268.34;5032887;28;20513;-72
2023/03/06 01:40:22;;;;;;;20.93;13.70;;;;;;;4.34;73.38;94260.59;5033064;28;20500;-73
2023/03/06 01:42:50;;;;;;;21.93;14.23;;;;;;;4.40;73.45;94268.88;5032856;28;20446;-71
2023/03/06 01:45:54;;;;;;;24.37;14.43;;;;;;;4.39;73.53;94272.41;5032745;28;20454;-73
2023/03/06 01:48:24;;;;;;;21.37;13.43;;;;;;;4.39;74.00;94269.81;5032740;28;20446;-72
2023/03/06 01:50:52;;;;;;;23.23;14.60;;;;;;;4.38;74.01;94260.38;4998340;28;20904;-72
2023/03/06 01:53:20;;;;;;;26.87;15.93;;;;;;;4.38;74.30;94268.16;5032808;28;20857;-72
2023/03/06 01:55:47;;;;;;;20.60;14.10;;;;;;;4.22;74.41;94264.03;5032648;28;20442;-73
2023/03/06 01:58:18;;;;;;;24.30;14.10;;;;;;;4.09;75.27;94265.00;5014060;28;20858;-72
2023/03/06 02:00:45;;;;;;;23.27;14.13;;;;;;;3.78;75.41;94271.50;5032463;28;20541;-72
2023/03/06 02:03:16;;;;;;;27.13;16.77;;;;;;;3.83;76.33;94261.63;5032722;28;20525;-72
2023/03/06 02:05:44;;;;;;;22.03;14.53;;;;;;;3.65;77.38;94261.09;5032738;28;20539;-72
2023/03/06 02:08:14;;;;;;;28.10;15.23;;;;;;;3.69;77.01;94271.16;4997651;28;20949;-72
2023/03/06 02:10:43;;;;;;;24.73;14.70;;;;;;;3.40;77.22;94267.09;5032502;28;20447;-72
2023/03/06 02:13:09;;;;;;;25.50;15.50;;;;;;;2.90;80.02;94258.34;5032524;28;20449;-71
2023/03/06 02:15:37;;;;;;;24.07;15.90;;;;;;;3.02;80.21;94267.06;5032492;28;20921;-73
2023/03/06 02:18:04;;;;;;;32.90;17.43;;;;;;;3.15;79.35;94274.84;5032496;28;20441;-72
2023/03/06 02:20:36;;;;;;;22.30;14.07;;;;;;;3.15;80.17;94280.03;5032527;28;20438;-72
2023/03/06 02:23:08;;;;;;;26.87;14.83;;;;;;;2.75;81.22;94275.69;5032330;28;20450;-73
2023/03/06 02:25:39;;;;;;;33.10;18.60;;;;;;;2.98;80.46;94279.38;5031460;28;20493;-72
2023/03/06 02:28:08;;;;;;;27.57;15.90;;;;;;;2.56;83.09;94279.53;5032493;28;20422;-71
2023/03/06 02:30:36;;;;;;;27.00;16.17;;;;;;;2.41;83.45;94271.81;4997659;28;20430;-72
2023/03/06 02:33:03;;;;;;;26.53;15.67;;;;;;;2.37;84.62;94293.66;5032156;28;20464;-72
2023/03/06 02:35:31;;;;;;;30.00;15.57;;;;;;;2.37;84.16;94285.06;5032375;28;20474;-72
2023/03/06 02:38:02;;;;;;;23.30;15.37;;;;;;;2.18;85.80;94291.38;5032158;28;20457;-73
2023/03/06 02:40:29;;;;;;;19.40;14.07;;;;;;;2.47;85.12;94294.75;5032490;28;20446;-72
2023/03/06 02:42:58;;;;;;;22.70;14.10;;;;;;;2.70;83.96;94298.47;5032149;28;20446;-70
2023/03/06 02:45:32;;;;;;;31.33;14.10;;;;;;;2.90;82.91;94304.97;4997089;28;20512;-72
2023/03/06 02:47:58;;;;;;;29.13;14.00;;;;;;;3.02;81.84;94290.38;5032139;28;20442;-72
2023/03/06 02:50:25;;;;;;;25.37;15.40;;;;;;;3.11;81.21;94300.97;4997187;28;20450;-72
2023/03/06 02:52:52;;;;;;;24.80;15.03;;;;;;;3.21;80.15;94302.97;5032302;28;20441;-73
2023/03/06 02:55:19;;;;;;;21.83;13.20;;;;;;;3.22;80.58;94299.47;5031861;28;20451;-73
2023/03/06 02:57:46;;;;;;;25.70;15.80;;;;;;;3.32;79.89;94296.16;5032057;28;20485;-73
2023/03/06 03:00:15;;;;;;;26.80;15.03;;;;;;;3.43;79.38;94304.03;5031892;28;20500;-71
2023/03/06 03:02:42;;;;;;;25.87;14.27;;;;;;;3.47;79.39;94293.44;5031952;28;20450;-71
2023/03/06 03:05:09;;;;;;;26.57;15.23;;;;;;;3.48;78.81;94308.94;5031821;28;20446;-73
2023/03/06 03:07:36;;;;;;;24.87;15.00;;;;;;;3.55;78.90;94302.41;5013215;28;20478;-73
2023/03/06 03:10:03;;;;;;;23.43;13.33;;;;;;;3.56;78.45;94293.69;5031606;28;20945;-73
2023/03/06 03:12:30;;;;;;;22.00;14.53;;;;;;;3.57;78.27;94302.28;5031930;28;20449;-72
2023/03/06 03:14:56;;;;;;;23.00;16.93;;;;;;;3.59;78.43;94303.84;5031538;28;20794;-73
2023/03/06 03:17:25;;;;;;;28.43;16.67;;;;;;;3.57;77.87;94297.09;5032162;28;20449;-73
2023/03/06 03:19:51;;;;;;;24.33;15.17;;;;;;;3.54;78.38;94297.31;5031552;28;20496;-72
2023/03/06 03:22:18;;;;;;;22.30;13.97;;;;;;;3.56;77.67;94309.25;5031595;28;20491;-72
2023/03/06 03:24:46;;;;;;;25.10;15.03;;;;;;;3.58;78.19;94307.38;4996742;28;20450;-73
2023/03/06 03:27:13;;;;;;;24.70;14.00;;;;;;;3.59;77.62;94303.03;5031639;28;20527;-73
2023/03/06 03:29:40;;;;;;;20.57;15.50;;;;;;;3.66;77.28;94302.50;5031502;28;20707;-71
2023/03/06 03:32:07;;;;;;;29.10;15.07;;;;;;;3.71;77.07;94302.19;5031548;28;20925;-72
2023/03/06 03:34:35;;;;;;;23.13;14.00;;;;;;;3.77;77.67;94307.00;4996348;28;20481;-72
2023/03/06 03:37:02;;;;;;;22.73;13.97;;;;;;;3.81;77.91;94307.59;5033832;28;20949;-72
2023/03/06 03:39:29;;;;;;;25.00;14.30;;;;;;;3.73;76.96;94298.56;5000405;28;20446;-72
2023/03/06 03:41:56;;;;;;;19.63;12.93;;;;;;;3.70;77.74;94306.53;5035755;28;20860;-70
2023/03/06 03:44:23;;;;;;;20.93;11.93;;;;;;;3.67;77.42;94313.72;5035139;28;20516;-71
2023/03/06 03:46:49;;;;;;;23.00;13.20;;;;;;;3.67;77.29;94311.94;5035217;28;20482;-72
2023/03/06 03:49:16;;;;;;;19.93;12.30;;;;;;;3.67;78.60;94311.94;5035172;28;20454;-72
2023/03/06 03:51:45;;;;;;;17.67;12.00;;;;;;;3.71;77.54;94310.78;5035236;28;20449;-72
2023/03/06 03:54:11;;;;;;;24.13;12.40;;;;;;;3.74;78.00;94310.59;5035043;28;20446;-72
2023/03/06 03:56:39;;;;;;;21.73;12.67;;;;;;;3.78;78.07;94307.81;5035089;28;20508;-71
2023/03/06 03:59:06;;;;;;;23.53;14.40;;;;;;;3.79;77.80;94320.69;5035563;28;20812;-72
2023/03/06 04:01:33;;;;;;;19.80;12.50;;;;;;;3.84;76.70;94328.97;5035460;28;20455;-72
2023/03/06 04:03:59;;;;;;;24.50;13.13;;;;;;;3.79;77.30;94325.03;5035566;28;20446;-72
2023/03/06 04:06:26;;;;;;;22.57;13.33;;;;;;;3.79;77.46;94325.03;5000666;28;20482;-73
2023/03/06 04:08:55;;;;;;;19.83;12.57;;;;;;;3.81;77.69;94323.19;5035389;28;20445;-73
2023/03/06 04:11:21;;;;;;;23.40;13.20;;;;;;;3.80;76.68;94326.69;5035092;28;20909;-73
2023/03/06 04:13:48;;;;;;;22.73;12.60;;;;;;;3.75;76.59;94329.59;4999806;28;20445;-72
2023/03/06 04:16:15;;;;;;;18.80;11.70;;;;;;;3.73;76.87;94323.66;5035022;28;20508;-71
2023/03/06 04:18:42;;;;;;;19.57;12.17;;;;;;;3.70;77.23;94332.50;5034978;28;20526;-72
2023/03/06 04:21:09;;;;;;;23.13;13.80;;;;;;;3.68;77.71;94330.94;5035107;28;20808;-72
2023/03/06 04:23:35;;;;;;;27.00;15.07;;;;;;;3.65;77.86;94326.78;5034924;28;20451;-72
2023/03/06 04:26:04;;;;;;;22.80;14.27;;;;;;;3.62;77.40;94336.53;5035623;28;20504;-71
2023/03/06 04:28:31;;;;;;;21.43;13.03;;;;;;;3.61;77.55;94340.91;5017720;28;20507;-72
2023/03/06 04:30:58;;;;;;;24.17;12.30;;;;;;;3.61;77.18;94333.13;5055079;28;20444;-73
2023/03/06 04:33:24;;;;;;;26.13;13.90;;;;;;;3.60;76.55;94334.03;5054730;28;20457;-72
2023/03/06 04:35:51;;;;;;;26.10;15.03;;;;;;;3.56;76.05;94324.81;5054717;28;20496;-73
2023/03/06 04:38:18;;;;;;;26.23;13.37;;;;;;;3.50;76.70;94339.97;5054981;28;20483;-74
2023/03/06 04:40:45;;;;;;;22.83;12.10;;;;;;;3.48;77.32;94326.25;5035645;28;20523;-72
2023/03/06 04:43:13;;;;;;;26.00;13.00;;;;;;;3.46;78.38;94339.31;5054505;28;20751;-73
2023/03/06 04:45:40;;;;;;;28.07;14.40;;;;;;;3.48;79.08;94337.47;5054769;28;20449;-73
2023/03/06 04:48:07;;;;;;;22.53;14.63;;;;;;;3.49;79.41;94335.72;5053542;28;20488;-72
2023/03/06 04:50:33;;;;;;;20.93;12.80;;;;;;;3.51;79.12;94337.25;5053944;28;20441;-73
2023/03/06 04:53:02;;;;;;;26.20;14.98;;;;;;;3.56;79.24;94342.97;5052977;28;20795;-73
2023/03/06 04:55:29;;;;;;;28.63;14.67;;;;;;;3.65;78.76;94349.31;5054227;28;20248;-72
2023/03/06 04:57:57;;;;;;;24.13;13.90;;;;;;;3.68;78.12;94344.75;5053632;28;20437;-72
2023/03/06 05:00:29;;;;;;;26.83;14.87;;;;;;;3.67;78.49;94348.25;5053977;28;20819;-72
2023/03/06 05:02:56;;;;;;;21.57;13.50;;;;;;;3.66;78.44;94346.59;5051834;28;20461;-72
2023/03/06 05:05:23;;;;;;;21.03;12.97;;;;;;;3.62;78.56;94345.16;5053517;28;20946;-71
2023/03/06 05:07:50;;;;;;;21.43;13.10;;;;;;;3.57;79.64;94342.03;5053258;28;20491;-72
2023/03/06 05:10:18;;;;;;;26.57;13.43;;;;;;;3.59;78.83;94340.16;5053500;28;20449;-72
2023/03/06 05:12:45;;;;;;;23.97;13.87;;;;;;;3.59;78.98;94344.53;5053582;28;20812;-72
2023/03/06 05:15:13;;;;;;;20.40;13.97;;;;;;;3.63;79.64;94356.34;5052847;28;20445;-72
2023/03/06 05:17:41;;;;;;;43.07;13.80;;;;;;;3.63;79.89;94354.59;5053461;28;20487;-72
2023/03/06 05:20:10;;;;;;;21.80;13.17;;;;;;;3.59;78.27;94353.13;5053465;28;20437;-72
2023/03/06 05:22:37;;;;;;;18.17;11.80;;;;;;;3.50;79.77;94345.97;5053057;28;20779;-72
2023/03/06 05:25:04;;;;;;;21.60;12.90;;;;;;;3.53;80.55;94343.19;5034312;28;20448;-72
2023/03/06 05:27:31;;;;;;;24.00;13.00;;;;;;;3.66;81.01;94356.16;5053055;28;21371;-72
2023/03/06 05:29:58;;;;;;;20.97;13.47;;;;;;;3.79;80.02;94356.19;5053961;28;20510;-73
2023/03/06 05:32:25;;;;;;;18.87;12.43;;;;;;;3.88;80.20;94365.94;5053753;28;20465;-72
2023/03/06 05:34:54;;;;;;;23.07;13.10;;;;;;;3.93;79.96;94358.66;5053759;28;20971;-72
2023/03/06 05:37:21;;;;;;;19.40;12.10;;;;;;;4.01;79.22;94361.56;5053471;28;20453;-71
2023/03/06 05:39:48;;;;;;;22.73;13.50;;;;;;;4.07;78.38;94361.19;5053523;28;20445;-72
2023/03/06 05:42:15;;;;;;;22.73;12.63;;;;;;;4.15;78.01;94360.66;5053295;28;20885;-73
2023/03/06 05:44:42;;;;;;;27.53;13.67;;;;;;;4.19;78.33;94352.53;5034389;28;20437;-71
2023/03/06 05:47:10;;;;;;;31.80;16.07;;;;;;;4.22;79.04;94346.28;5053267;28;20484;-72
2023/03/06 05:49:37;;;;;;;30.73;15.67;;;;;;;4.24;77.94;94347.84;5053524;28;20854;-72
2023/03/06 05:52:07;;;;;;;28.23;14.87;;;;;;;4.33;78.19;94355.00;5053119;28;20449;-72
2023/03/06 05:54:36;;;;;;;23.93;16.43;;;;;;;4.44;78.23;94363.84;5053341;28;20445;-72
2023/03/06 05:57:04;;;;;;;28.33;15.97;;;;;;;4.47;77.57;94361.84;5053233;28;20445;-73
2023/03/06 05:59:31;;;;;;;29.93;17.00;;;;;;;4.64;79.23;94360.69;5052961;28;20532;-72
2023/03/06 06:01:59;;;;;;;34.43;15.57;;;;;;;5.06;79.79;94356.78;5053421;28;20468;-72
2023/03/06 06:04:26;;;;;;;27.60;15.77;;;;;;;5.77;76.10;94373.28;5053008;28;20445;-72
2023/03/06 06:06:54;;;;;;;35.30;17.93;;;;;;;6.14;72.70;94377.44;5033731;28;20477;-73
2023/03/06 06:09:22;;;;;;;28.50;16.50;;;;;;;6.32;72.40;94377.78;5052562;28;20445;-73
2023/03/06 06:11:51;;;;;;;27.37;16.87;;;;;;;6.37;70.92;94387.88;5052837;28;20446;-73
2023/03/06 06:14:18;;;;;;;30.30;16.00;;;;;;;6.56;70.59;94377.69;5051416;28;20468;-73
2023/03/06 06:16:45;;;;;;;39.47;15.97;;;;;;;6.75;70.04;94385.75;5035659;28;20566;-73
2023/03/06 06:19:17;;;;;;;25.97;16.60;;;;;;;6.97;66.96;94386.69;5052847;28;20454;-73
2023/03/06 06:21:45;;;;;;;34.77;14.50;;;;;;;7.21;65.28;94392.56;5052471;28;20443;-73
2023/03/06 06:24:12;;;;;;;29.57;15.20;;;;;;;7.64;65.74;94392.56;5052297;28;20621;-74
2023/03/06 06:26:41;;;;;;;23.10;16.10;;;;;;;7.88;64.31;94386.28;5052537;28;20448;-73
2023/03/06 06:29:08;;;;;;;28.10;15.80;;;;;;;7.78;62.67;94387.00;5051709;28;20836;-73
2023/03/06 06:31:36;;;;;;;23.20;15.37;;;;;;;7.83;63.71;94389.28;5045460;28;20450;-74
2023/03/06 06:34:03;;;;;;;27.10;15.23;;;;;;;8.16;62.86;94396.09;5052546;28;21067;-73
2023/03/06 06:36:30;;;;;;;26.80;14.70;;;;;;;8.60;62.14;94392.38;5052481;28;20513;-73
2023/03/06 06:38:57;;;;;;;25.53;16.90;;;;;;;9.07;59.22;94395.34;5051303;28;20514;-71
2023/03/06 06:41:24;;;;;;;32.73;15.90;;;;;;;9.29;58.93;94389.88;5051076;28;20506;-75
2023/03/06 06:43:53;;;;;;;23.70;14.83;;;;;;;9.25;57.14;94387.66;5039338;28;20858;-73
2023/03/06 06:46:20;;;;;;;23.03;13.43;;;;;;;9.59;58.05;94402.06;5051453;28;20447;-73
2023/03/06 06:48:49;;;;;;;27.50;12.60;;;;;;;9.38;56.01;94392.66;5034139;28;20581;-72
2023/03/06 06:51:16;;;;;;;19.37;12.70;;;;;;;9.12;55.69;94405.41;5032095;28;20530;-72
2023/03/06 06:53:43;;;;;;;21.93;12.10;;;;;;;9.23;55.55;94413.13;5031906;28;20449;-74
2023/03/06 06:56:10;;;;;;;19.73;13.20;;;;;;;9.62;55.27;94412.28;4997437;28;20492;-73
2023/03/06 06:58:37;;;;;;;18.67;13.30;;;;;;;9.38;55.60;94408.38;5031769;28;20450;-74
2023/03/06 07:01:10;;;;;;;17.60;12.57;;;;;;;9.53;54.90;94413.06;5032008;28;20917;-74
2023/03/06 07:03:37;;;;;;;21.20;11.97;;;;;;;9.73;54.91;94408.69;5031948;28;20518;-73
2023/03/06 07:06:04;;;;;;;21.83;12.60;;;;;;;9.34;55.02;94413.06;5013215;28;20433;-74
2023/03/06 07:08:31;;;;;;;22.53;12.67;;;;;;;9.27;54.91;94407.53;4996993;28;20485;-72
2023/03/06 07:10:58;;;;;;;26.40;11.53;;;;;;;9.48;54.86;94407.41;4997221;28;20442;-73
2023/03/06 07:13:25;;;;;;;15.63;11.43;;;;;;;9.56;53.62;94412.00;5035765;28;20442;-72
2023/03/06 07:15:51;;;;;;;20.13;13.10;;;;;;;9.21;55.30;94405.41;5036099;28;20921;-74
2023/03/06 07:18:20;;;;;;;17.27;12.27;;;;;;;9.20;55.22;94400.31;5035931;28;20801;-73
2023/03/06 07:20:46;;;;;;;22.33;12.67;;;;;;;9.49;55.70;94405.63;5035827;28;20450;-72
2023/03/06 07:23:13;;;;;;;24.30;11.13;;;;;;;9.76;53.02;94403.16;5035913;28;20486;-73
2023/03/06 07:25:40;;;;;;;20.20;11.23;;;;;;;9.87;52.03;94408.28;5000784;28;20434;-73
2023/03/06 07:28:07;;;;;;;27.10;12.87;;;;;;;9.86;52.09;94411.06;5035722;28;20496;-73
2023/03/06 07:30:34;;;;;;;18.67;11.50;;;;;;;9.51;52.24;94412.38;5035722;28;20438;-74
2023/03/06 07:33:00;;;;;;;20.13;11.40;;;;;;;9.65;52.82;94403.31;5035624;28;20453;-74
2023/03/06 07:35:29;;;;;;;23.03;12.00;;;;;;;9.49;52.87;94408.25;5035344;28;20470;-73
2023/03/06 07:37:56;;;;;;;18.07;12.97;;;;;;;9.87;53.32;94407.47;5035515;28;20455;-73
2023/03/06 07:40:23;;;;;;;17.40;12.43;;;;;;;9.57;52.13;94411.03;5035161;28;20439;-72
2023/03/06 07:42:50;;;;;;;21.70;11.57;;;;;;;9.70;54.23;94410.75;5035529;28;20460;-73
2023/03/06 07:45:17;;;;;;;18.50;10.70;;;;;;;9.80;52.24;94409.78;5035263;28;20452;-73
2023/03/06 07:47:43;;;;;;;18.23;11.30;;;;;;;10.03;52.16;94417.38;5035072;28;20489;-71
2023/03/06 07:50:11;;;;;;;19.50;11.53;;;;;;;9.78;51.08;94411.72;5035304;28;20498;-71
2023/03/06 07:52:39;;;;;;;14.00;10.30;;;;;;;9.83;51.68;94414.78;5034948;28;20499;-73
2023/03/06 07:55:08;;;;;;;17.63;11.90;;;;;;;9.82;51.52;94417.50;5035276;28;20531;-74
2023/03/06 07:57:35;;;;;;;18.93;11.77;;;;;;;9.68;52.90;94425.78;4968163;28;20444;-72
2023/03/06 08:00:02;;;;;;;18.90;11.07;;;;;;;9.66;52.16;94428.53;5035221;28;20455;-73
2023/03/06 08:02:29;;;;;;;16.50;11.77;;;;;;;9.93;52.25;94420.84;5035133;28;20447;-74
2023/03/06 08:04:56;;;;;;;20.20;12.60;;;;;;;10.25;51.86;94411.88;5035180;28;20445;-73
2023/03/06 08:07:23;;;;;;;23.57;11.50;;;;;;;10.71;50.99;94426.03;5034872;28;20894;-74
2023/03/06 08:09:52;;;;;;;20.80;11.93;;;;;;;10.74;49.08;94418.72;5035063;28;20522;-73
2023/03/06 08:12:18;;;;;;;22.10;12.97;;;;;;;10.68;49.28;94418.44;5034676;28;20515;-74
2023/03/06 08:14:45;;;;;;;18.27;11.60;;;;;;;10.72;49.43;94411.94;5034791;28;20450;-74
2023/03/06 08:17:12;;;;;;;21.10;13.13;;;;;;;10.96;49.22;94414.88;5015949;28;20438;-73
2023/03/06 08:19:39;;;;;;;23.10;13.33;;;;;;;11.12;48.63;94422.97;5034755;28;20813;-74
2023/03/06 08:22:06;;;;;;;22.80;13.80;;;;;;;11.25;48.58;94411.31;5034423;28;20434;-72
2023/03/06 08:24:33;;;;;;;23.43;13.53;;;;;;;11.31;48.27;94423.88;5014941;28;20435;-73
2023/03/06 08:27:01;;;;;;;20.30;12.87;;;;;;;10.67;48.40;94411.53;5034701;28;20492;-74
2023/03/06 08:29:28;;;;;;;16.97;13.73;;;;;;;10.63;49.04;94415.41;5034582;28;20520;-73
2023/03/06 08:31:55;;;;;;;18.30;12.63;;;;;;;10.43;50.66;94418.09;5034322;28;20442;-74
2023/03/06 08:34:24;;;;;;;16.80;12.77;;;;;;;10.48;50.51;94409.78;4999358;28;20489;-73
2023/03/06 08:36:51;;;;;;;21.50;15.30;;;;;;;10.36;50.16;94413.53;5034373;28;20438;-71
2023/03/06 08:39:19;;;;;;;17.97;13.10;;;;;;;10.14;50.31;94402.34;5015570;28;20445;-73
2023/03/06 08:41:46;;;;;;;20.43;13.10;;;;;;;10.16;50.81;94410.09;5034162;28;20453;-73
2023/03/06 08:44:14;;;;;;;15.70;11.77;;;;;;;9.97;50.72;94403.03;5034064;28;20441;-73
2023/03/06 08:46:41;;;;;;;16.67;11.30;;;;;;;9.77;51.38;94412.69;5034049;28;20458;-73
2023/03/06 08:49:09;;;;;;;25.77;12.50;;;;;;;9.49;52.35;94409.06;5033873;28;20482;-73
2023/03/06 08:51:36;;;;;;;21.53;11.67;;;;;;;9.55;51.97;94410.34;5034335;28;20886;-73
2023/03/06 08:54:03;;;;;;;16.23;11.00;;;;;;;9.37;52.02;94407.53;5015378;28;20463;-74
2023/03/06 08:56:32;;;;;;;21.70;13.10;;;;;;;9.84;52.41;94407.75;5033841;28;20450;-74
2023/03/06 08:59:00;;;;;;;22.53;13.60;;;;;;;10.22;50.65;94404.31;5034007;28;20450;-73
2023/03/06 09:01:31;;;;;;;19.33;12.47;;;;;;;10.15;50.38;94405.81;5033669;28;20507;-73
2023/03/06 09:04:00;;;;;;;16.63;11.50;;;;;;;10.07;50.56;94400.41;5033621;28;20860;-73
2023/03/06 09:06:30;;;;;;;14.43;11.17;;;;;;;9.93;52.11;94396.44;5033631;28;21017;-73
2023/03/06 09:08:57;;;;;;;18.50;11.30;;;;;;;10.07;50.66;94397.78;5033703;28;20540;-73
2023/03/06 09:11:26;;;;;;;17.63;12.30;;;;;;;10.35;49.87;94393.50;5033689;28;20517;-73
2023/03/06 09:13:53;;;;;;;15.63;11.47;;;;;;;10.59;50.18;94390.44;5033684;28;20447;-73
2023/03/06 09:16:20;;;;;;;19.93;12.63;;;;;;;10.80;49.65;94405.00;5033467;28;20447;-72
2023/03/06 09:18:49;;;;;;;16.40;11.60;;;;;;;10.91;48.67;94409.25;5033427;28;20454;-74
2023/03/06 09:21:16;;;;;;;17.30;12.37;;;;;;;10.85;48.56;94408.03;5033888;28;20427;-72
2023/03/06 09:23:43;;;;;;;21.17;11.20;;;;;;;11.02;48.55;94397.75;4998570;28;20450;-72
2023/03/06 09:26:12;;;;;;;16.23;11.13;;;;;;;11.09;49.52;94399.63;5014825;28;20484;-73
2023/03/06 09:28:40;;;;;;;14.13;11.60;;;;;;;11.16;49.27;94399.88;5033000;28;20572;-73
2023/03/06 09:31:11;;;;;;;19.77;11.43;;;;;;;11.35;48.28;94391.09;5033301;28;20450;-74
2023/03/06 09:33:38;;;;;;;17.90;12.97;;;;;;;11.46;48.83;94398.75;5032921;28;20447;-73
2023/03/06 09:36:10;;;;;;;17.20;11.87;;;;;;;11.42;48.74;94390.34;5033404;28;20435;-73
2023/03/06 09:38:37;;;;;;;19.70;11.60;;;;;;;11.41;48.97;94382.59;5033114;28;20446;-71
2023/03/06 09:41:08;;;;;;;19.07;12.57;;;;;;;11.19;48.06;94391.72;5033034;28;20858;-73
2023/03/06 09:43:37;;;;;;;25.40;12.90;;;;;;;11.34;49.86;94395.50;5033240;28;20446;-72
2023/03/06 09:46:17;;;;;;;23.23;12.60;;;;;;;11.02;47.90;94390.69;5033205;28;20808;-73
2023/03/06 09:49:00;;;;;;;17.87;11.70;;;;;;;10.97;49.30;94385.03;5032816;28;20499;-73
2023/03/06 09:51:37;;;;;;;15.73;13.07;;;;;;;11.03;50.57;94384.47;5032918;28;20442;-73
2023/03/06 09:54:09;;;;;;;22.07;12.47;;;;;;;10.84;49.47;94388.00;5032858;28;20921;-72
2023/03/06 09:56:37;;;;;;;23.40;13.40;;;;;;;10.68;50.87;94389.56;5033318;28;20455;-74
2023/03/06 09:59:12;;;;;;;18.30;13.80;;;;;;;10.57;50.50;94382.69;5032731;28;20465;-72
2023/03/06 10:01:42;;;;;;;19.40;12.10;;;;;;;10.48;51.77;94373.91;5032884;28;20499;-72
2023/03/06 10:04:19;;;;;;;17.27;12.20;;;;;;;10.60;50.96;94366.66;5032802;28;20852;-72
2023/03/06 10:06:49;;;;;;;19.93;13.43;;;;;;;10.94;51.62;94364.31;5032747;28;20497;-73
2023/03/06 10:09:20;;;;;;;20.30;11.67;;;;;;;11.03;50.42;94355.59;5032651;28;20482;-73
2023/03/06 10:11:52;;;;;;;15.67;11.70;;;;;;;11.08;50.42;94361.22;5032640;28;20450;-73
2023/03/06 10:14:29;;;;;;;22.57;13.53;;;;;;;11.25;50.24;94364.03;4998945;28;20792;-73
2023/03/06 10:16:57;;;;;;;23.37;17.07;;;;;;;11.42;50.84;94352.72;5032299;28;20445;-73
2023/03/06 10:19:31;;;;;;;22.17;12.00;;;;;;;11.17;49.90;94362.97;5032653;28;20450;-73
2023/03/06 10:22:03;;;;;;;17.40;12.07;;;;;;;11.27;50.05;94357.66;5032495;28;20520;-72
2023/03/06 10:24:42;;;;;;;21.00;11.40;;;;;;;11.52;50.30;94348.22;5032270;28;20848;-73
2023/03/06 10:27:20;;;;;;;15.33;12.23;;;;;;;11.71;50.27;94342.84;5032090;28;20450;-74
2023/03/06 10:29:55;;;;;;;24.17;12.60;;;;;;;11.75;48.55;94344.19;5032388;28;20487;-74
2023/03/06 10:32:27;;;;;;;16.70;11.20;;;;;;;11.86;48.50;94331.84;5032477;28;20462;-73
2023/03/06 10:34:59;;;;;;;19.17;12.50;;;;;;;11.86;49.61;94334.47;5032549;28;20531;-73
2023/03/06 10:37:28;;;;;;;16.20;11.27;;;;;;;11.73;48.65;94334.81;5032062;28;20452;-72
2023/03/06 10:40:02;;;;;;;18.87;12.30;;;;;;;11.67;48.11;94335.41;5032091;28;20442;-72
2023/03/06 10:42:29;;;;;;;16.17;12.27;;;;;;;11.66;48.97;94326.72;4997815;28;20450;-73
2023/03/06 10:45:08;;;;;;;14.40;11.10;;;;;;;11.79;49.73;94329.78;5032093;28;20450;-73
2023/03/06 10:47:36;;;;;;;17.67;11.90;;;;;;;11.94;49.13;94322.22;5031475;28;21013;-74
2023/03/06 10:50:07;;;;;;;14.13;9.53;;;;;;;12.01;48.16;94315.34;5031769;28;20521;-74
2023/03/06 10:52:36;;;;;;;16.73;9.67;;;;;;;12.10;48.01;94319.69;5032090;28;20841;-73
2023/03/06 10:55:26;;;;;;;11.53;9.73;;;;;;;12.11;48.57;94317.88;5031871;28;20453;-72
2023/03/06 10:57:53;;;;;;;15.90;9.30;;;;;;;11.77;49.17;94307.25;5031991;28;20459;-73
2023/03/06 11:00:28;;;;;;;17.13;9.00;;;;;;;11.70;49.08;94306.19;5031908;28;20448;-73
2023/03/06 11:03:20;;;;;;;19.97;11.97;;;;;;;11.63;50.47;94292.84;5032219;28;20841;-74
2023/03/06 11:06:10;;;;;;;14.93;11.57;;;;;;;11.90;49.82;94288.50;4970662;28;20945;-73
2023/03/06 11:08:39;;;;;;;16.00;9.03;;;;;;;12.15;48.72;94290.31;4894442;29;20485;-73
2023/03/06 11:11:07;;;;;;;14.43;10.13;;;;;;;12.30;48.82;94286.13;4894554;29;20506;-73
2023/03/06 11:13:36;;;;;;;16.87;9.10;;;;;;;12.20;49.19;94280.16;4894537;29;20591;-73
2023/03/06 11:16:06;;;;;;;17.33;10.53;;;;;;;12.24;48.55;94281.50;4894632;29;20508;-73
2023/03/06 11:18:39;;;;;;;13.27;9.47;;;;;;;12.06;48.90;94272.81;4894632;29;20453;-73
2023/03/06 11:21:23;;;;;;;18.00;10.00;;;;;;;11.73;49.37;94264.66;4894531;29;20464;-74
2023/03/06 11:23:52;;;;;;;15.83;9.20;;;;;;;11.62;49.70;94262.28;4894274;29;20513;-73
2023/03/06 11:26:30;;;;;;;13.30;8.63;;;;;;;11.84;49.00;94252.28;4894268;29;20453;-73
2023/03/06 11:29:06;;;;;;;35.90;10.17;;;;;;;12.00;48.75;94257.66;4894364;29;20580;-73
2023/03/06 11:31:36;;;;;;;10.40;7.60;;;;;;;12.10;47.65;94253.94;4894134;29;20452;-73